Longtown, North Carolina
Current Conditions -  °F | °C
As of 7:35 AM on Saturday 01 Nov 2014 (Local Time) from KMWK Reporting Station
Light Rain Light Rain  
Wind Chill: 39°   Ceiling: 1800
Heat Index: 39°   Visibility: 5mi
Dew Point: 37°   Wind: 0mph
Humidity: 91%   Direction: NA
Pressure: 29.8"   Gusts: NA
Location:  36.2374°N, 80.6343°W
Report Text: KMWK 011135Z AUTO 00000KT 5SM -RA BKN018 OVC027 04/03 A2980 RMK AO2 P0004 T00410027
Loading
Personal Weather Stations






























Interactive Weather Map
Tropical Storm Tracking
New forecast layout! Learn more

10-Day Weather Forecast

Advertisements
Track Severe Weather on mobile